sensor_id;sensor_type;location;lat;lon;timestamp;temperature;humidity
69531;SHT31;56727;47.188;8.840;2023-10-08T14:35:45;25.32;45.18
69531;SHT31;56727;47.188;8.840;2023-10-08T14:38:30;25.33;44.76
69531;SHT31;56727;47.188;8.840;2023-10-08T14:41:15;25.33;44.01
69531;SHT31;56727;47.188;8.840;2023-10-08T14:44:01;25.32;43.74
69531;SHT31;56727;47.188;8.840;2023-10-08T14:46:30;25.33;43.73
69531;SHT31;56727;47.188;8.840;2023-10-08T14:48:59;25.32;44.14
69531;SHT31;56727;47.188;8.840;2023-10-08T14:51:25;25.33;44.42
69531;SHT31;56727;47.188;8.840;2023-10-08T14:53:52;25.34;44.38
69531;SHT31;56727;47.188;8.840;2023-10-08T14:56:19;25.35;44.21
69531;SHT31;56727;47.188;8.840;2023-10-08T14:58:46;25.36;44.51
69531;SHT31;56727;47.188;8.840;2023-10-08T15:01:14;25.37;44.88
69531;SHT31;56727;47.188;8.840;2023-10-08T15:03:41;25.39;44.90
69531;SHT31;56727;47.188;8.840;2023-10-08T15:06:07;25.40;45.20
69531;SHT31;56727;47.188;8.840;2023-10-08T15:08:36;25.39;45.46
69531;SHT31;56727;47.188;8.840;2023-10-08T15:11:03;25.38;46.22
69531;SHT31;56727;47.188;8.840;2023-10-08T15:13:32;25.36;46.20
69531;SHT31;56727;47.188;8.840;2023-10-08T15:15:59;25.34;46.31
69531;SHT31;56727;47.188;8.840;2023-10-08T15:18:30;25.31;46.89
69531;SHT31;56727;47.188;8.840;2023-10-08T15:20:58;25.28;47.15
69531;SHT31;56727;47.188;8.840;2023-10-08T15:23:24;25.26;47.31
69531;SHT31;56727;47.188;8.840;2023-10-08T15:25:54;25.25;47.64
69531;SHT31;56727;47.188;8.840;2023-10-08T15:28:20;25.24;47.97
69531;SHT31;56727;47.188;8.840;2023-10-08T15:30:47;25.22;47.89
69531;SHT31;56727;47.188;8.840;2023-10-08T15:33:13;25.22;47.97
69531;SHT31;56727;47.188;8.840;2023-10-08T15:35:40;25.20;48.05
69531;SHT31;56727;47.188;8.840;2023-10-08T15:38:06;25.18;48.38
69531;SHT31;56727;47.188;8.840;2023-10-08T15:40:33;25.12;48.21
69531;SHT31;56727;47.188;8.840;2023-10-08T15:42:59;25.06;48.01
69531;SHT31;56727;47.188;8.840;2023-10-08T15:45:26;25.00;48.17
69531;SHT31;56727;47.188;8.840;2023-10-08T15:47:52;24.95;48.26
69531;SHT31;56727;47.188;8.840;2023-10-08T15:50:19;24.92;48.45
69531;SHT31;56727;47.188;8.840;2023-10-08T15:52:47;24.91;48.54
69531;SHT31;56727;47.188;8.840;2023-10-08T15:55:14;24.89;48.62
69531;SHT31;56727;47.188;8.840;2023-10-08T15:57:41;24.86;48.60
69531;SHT31;56727;47.188;8.840;2023-10-08T16:00:08;24.82;48.51
69531;SHT31;56727;47.188;8.840;2023-10-08T16:02:36;24.80;48.37
69531;SHT31;56727;47.188;8.840;2023-10-08T16:05:03;24.78;48.27
69531;SHT31;56727;47.188;8.840;2023-10-08T16:07:30;24.75;48.26
69531;SHT31;56727;47.188;8.840;2023-10-08T16:09:56;24.72;48.31
69531;SHT31;56727;47.188;8.840;2023-10-08T16:12:23;24.68;48.41
69531;SHT31;56727;47.188;8.840;2023-10-08T16:14:49;24.63;48.64
69531;SHT31;56727;47.188;8.840;2023-10-08T16:17:16;24.57;48.81
69531;SHT31;56727;47.188;8.840;2023-10-08T16:19:45;24.52;48.83
69531;SHT31;56727;47.188;8.840;2023-10-08T16:22:13;24.44;49.10
69531;SHT31;56727;47.188;8.840;2023-10-08T16:24:40;24.38;49.26
69531;SHT31;56727;47.188;8.840;2023-10-08T16:27:06;24.33;49.12
69531;SHT31;56727;47.188;8.840;2023-10-08T16:29:33;24.25;48.87
69531;SHT31;56727;47.188;8.840;2023-10-08T16:32:02;24.15;48.60
69531;SHT31;56727;47.188;8.840;2023-10-08T16:34:29;24.08;48.46
69531;SHT31;56727;47.188;8.840;2023-10-08T16:36:56;23.99;48.38
69531;SHT31;56727;47.188;8.840;2023-10-08T16:39:23;23.93;48.34
69531;SHT31;56727;47.188;8.840;2023-10-08T16:41:52;23.86;48.45
69531;SHT31;56727;47.188;8.840;2023-10-08T16:44:20;23.78;48.39
69531;SHT31;56727;47.188;8.840;2023-10-08T16:46:49;23.69;47.98
69531;SHT31;56727;47.188;8.840;2023-10-08T16:49:17;23.62;47.84
69531;SHT31;56727;47.188;8.840;2023-10-08T16:51:46;23.57;47.94
69531;SHT31;56727;47.188;8.840;2023-10-08T16:54:13;23.53;47.99
69531;SHT31;56727;47.188;8.840;2023-10-08T16:56:45;23.47;48.04
69531;SHT31;56727;47.188;8.840;2023-10-08T16:59:12;23.41;48.10
69531;SHT31;56727;47.188;8.840;2023-10-08T17:01:42;23.34;48.17
69531;SHT31;56727;47.188;8.840;2023-10-08T17:04:09;23.29;47.63
69531;SHT31;56727;47.188;8.840;2023-10-08T17:06:38;23.23;47.36
69531;SHT31;56727;47.188;8.840;2023-10-08T17:09:05;23.15;47.17
69531;SHT31;56727;47.188;8.840;2023-10-08T17:11:40;23.09;47.27
69531;SHT31;56727;47.188;8.840;2023-10-08T17:14:12;23.01;47.66
69531;SHT31;56727;47.188;8.840;2023-10-08T17:16:40;22.95;47.81
69531;SHT31;56727;47.188;8.840;2023-10-08T17:19:10;22.92;47.64
69531;SHT31;56727;47.188;8.840;2023-10-08T17:21:37;22.89;47.61
69531;SHT31;56727;47.188;8.840;2023-10-08T17:24:04;22.82;47.76
69531;SHT31;56727;47.188;8.840;2023-10-08T17:26:35;22.78;47.83
69531;SHT31;56727;47.188;8.840;2023-10-08T17:29:03;22.74;47.93
69531;SHT31;56727;47.188;8.840;2023-10-08T17:31:33;22.72;47.98
69531;SHT31;56727;47.188;8.840;2023-10-08T17:34:03;22.70;47.99
69531;SHT31;56727;47.188;8.840;2023-10-08T17:36:31;22.67;48.00
69531;SHT31;56727;47.188;8.840;2023-10-08T17:38:59;22.64;47.98
69531;SHT31;56727;47.188;8.840;2023-10-08T17:41:26;22.61;47.89
69531;SHT31;56727;47.188;8.840;2023-10-08T17:43:53;22.59;47.70
69531;SHT31;56727;47.188;8.840;2023-10-08T17:46:20;22.56;47.50
69531;SHT31;56727;47.188;8.840;2023-10-08T17:48:46;22.52;47.52
69531;SHT31;56727;47.188;8.840;2023-10-08T17:51:13;22.50;47.50
69531;SHT31;56727;47.188;8.840;2023-10-08T17:53:42;22.44;47.48
69531;SHT31;56727;47.188;8.840;2023-10-08T17:56:08;22.37;47.55
69531;SHT31;56727;47.188;8.840;2023-10-08T17:58:35;22.32;47.57
69531;SHT31;56727;47.188;8.840;2023-10-08T18:01:12;22.29;47.61
69531;SHT31;56727;47.188;8.840;2023-10-08T18:03:40;22.24;47.70
69531;SHT31;56727;47.188;8.840;2023-10-08T18:06:11;22.18;47.83
69531;SHT31;56727;47.188;8.840;2023-10-08T18:08:46;22.14;47.98
69531;SHT31;56727;47.188;8.840;2023-10-08T18:11:16;22.11;48.02
69531;SHT31;56727;47.188;8.840;2023-10-08T18:13:51;22.08;48.11
69531;SHT31;56727;47.188;8.840;2023-10-08T18:16:17;22.04;48.13
69531;SHT31;56727;47.188;8.840;2023-10-08T18:18:44;22.00;48.20
69531;SHT31;56727;47.188;8.840;2023-10-08T18:21:12;21.93;48.29
69531;SHT31;56727;47.188;8.840;2023-10-08T18:23:42;21.87;48.38
69531;SHT31;56727;47.188;8.840;2023-10-08T18:26:11;21.81;48.49
69531;SHT31;56727;47.188;8.840;2023-10-08T18:28:38;21.77;48.49
69531;SHT31;56727;47.188;8.840;2023-10-08T18:31:09;21.70;48.57
69531;SHT31;56727;47.188;8.840;2023-10-08T18:33:37;21.66;48.54
69531;SHT31;56727;47.188;8.840;2023-10-08T18:36:11;21.60;48.67
69531;SHT31;56727;47.188;8.840;2023-10-08T18:38:41;21.56;48.83
69531;SHT31;56727;47.188;8.840;2023-10-08T18:41:08;21.54;48.94
69531;SHT31;56727;47.188;8.840;2023-10-08T18:43:35;21.51;48.93
69531;SHT31;56727;47.188;8.840;2023-10-08T18:46:02;21.48;48.91
69531;SHT31;56727;47.188;8.840;2023-10-08T18:48:30;21.43;49.03
69531;SHT31;56727;47.188;8.840;2023-10-08T18:51:04;21.39;49.09
69531;SHT31;56727;47.188;8.840;2023-10-08T18:53:37;21.34;49.22
69531;SHT31;56727;47.188;8.840;2023-10-08T18:56:06;21.30;49.39
69531;SHT31;56727;47.188;8.840;2023-10-08T18:58:37;21.28;49.54
69531;SHT31;56727;47.188;8.840;2023-10-08T19:01:05;21.26;49.48
69531;SHT31;56727;47.188;8.840;2023-10-08T19:03:36;21.23;49.60
69531;SHT31;56727;47.188;8.840;2023-10-08T19:06:03;21.20;49.65
69531;SHT31;56727;47.188;8.840;2023-10-08T19:08:35;21.18;49.72
69531;SHT31;56727;47.188;8.840;2023-10-08T19:11:05;21.14;49.79
69531;SHT31;56727;47.188;8.840;2023-10-08T19:13:37;21.11;49.89
69531;SHT31;56727;47.188;8.840;2023-10-08T19:16:08;21.06;50.03
69531;SHT31;56727;47.188;8.840;2023-10-08T19:18:39;21.00;50.07
69531;SHT31;56727;47.188;8.840;2023-10-08T19:21:07;20.97;50.13
69531;SHT31;56727;47.188;8.840;2023-10-08T19:23:40;20.94;50.15
69531;SHT31;56727;47.188;8.840;2023-10-08T19:26:07;20.91;50.19
69531;SHT31;56727;47.188;8.840;2023-10-08T19:28:33;20.88;50.25
69531;SHT31;56727;47.188;8.840;2023-10-08T19:31:00;20.85;50.28
69531;SHT31;56727;47.188;8.840;2023-10-08T19:33:31;20.81;50.30
69531;SHT31;56727;47.188;8.840;2023-10-08T19:35:58;20.76;50.43
69531;SHT31;56727;47.188;8.840;2023-10-08T19:38:25;20.71;50.57
69531;SHT31;56727;47.188;8.840;2023-10-08T19:40:53;20.66;50.72
69531;SHT31;56727;47.188;8.840;2023-10-08T19:43:20;20.63;50.77
69531;SHT31;56727;47.188;8.840;2023-10-08T19:45:47;20.57;50.94
69531;SHT31;56727;47.188;8.840;2023-10-08T19:48:14;20.56;51.08
69531;SHT31;56727;47.188;8.840;2023-10-08T19:50:42;20.54;51.16
69531;SHT31;56727;47.188;8.840;2023-10-08T19:53:09;20.50;51.22
69531;SHT31;56727;47.188;8.840;2023-10-08T19:55:45;20.48;51.37
69531;SHT31;56727;47.188;8.840;2023-10-08T19:58:15;20.47;51.39
69531;SHT31;56727;47.188;8.840;2023-10-08T20:00:46;20.45;51.40
69531;SHT31;56727;47.188;8.840;2023-10-08T20:03:14;20.45;51.36
69531;SHT31;56727;47.188;8.840;2023-10-08T20:05:41;20.41;51.48
69531;SHT31;56727;47.188;8.840;2023-10-08T20:08:09;20.38;51.64
69531;SHT31;56727;47.188;8.840;2023-10-08T20:10:38;20.34;51.71
69531;SHT31;56727;47.188;8.840;2023-10-08T20:13:07;20.33;51.77
69531;SHT31;56727;47.188;8.840;2023-10-08T20:15:35;20.31;51.86
69531;SHT31;56727;47.188;8.840;2023-10-08T20:18:02;20.25;51.92
69531;SHT31;56727;47.188;8.840;2023-10-08T20:20:32;20.19;52.43
69531;SHT31;56727;47.188;8.840;2023-10-08T20:22:59;20.15;52.31
69531;SHT31;56727;47.188;8.840;2023-10-08T20:25:30;20.13;52.57
69531;SHT31;56727;47.188;8.840;2023-10-08T20:28:09;20.13;52.50
69531;SHT31;56727;47.188;8.840;2023-10-08T20:30:40;20.13;52.64
69531;SHT31;56727;47.188;8.840;2023-10-08T20:33:08;20.14;52.80
69531;SHT31;56727;47.188;8.840;2023-10-08T20:35:36;20.14;52.73
69531;SHT31;56727;47.188;8.840;2023-10-08T20:38:09;20.12;52.81
69531;SHT31;56727;47.188;8.840;2023-10-08T20:40:42;20.09;52.88
69531;SHT31;56727;47.188;8.840;2023-10-08T20:43:12;20.07;52.91
69531;SHT31;56727;47.188;8.840;2023-10-08T20:45:41;20.04;53.01
69531;SHT31;56727;47.188;8.840;2023-10-08T20:48:07;20.02;53.05
69531;SHT31;56727;47.188;8.840;2023-10-08T20:50:39;20.00;53.05
69531;SHT31;56727;47.188;8.840;2023-10-08T20:53:06;19.99;53.08
69531;SHT31;56727;47.188;8.840;2023-10-08T20:55:36;19.97;52.98
69531;SHT31;56727;47.188;8.840;2023-10-08T20:58:07;19.93;53.03
69531;SHT31;56727;47.188;8.840;2023-10-08T21:00:34;19.90;53.07
69531;SHT31;56727;47.188;8.840;2023-10-08T21:03:05;19.89;53.05
69531;SHT31;56727;47.188;8.840;2023-10-08T21:05:35;19.89;52.95
69531;SHT31;56727;47.188;8.840;2023-10-08T21:08:06;19.87;52.92
69531;SHT31;56727;47.188;8.840;2023-10-08T21:10:35;19.85;52.92
69531;SHT31;56727;47.188;8.840;2023-10-08T21:13:05;19.83;53.01
69531;SHT31;56727;47.188;8.840;2023-10-08T21:15:33;19.79;53.07
69531;SHT31;56727;47.188;8.840;2023-10-08T21:18:04;19.75;53.15
69531;SHT31;56727;47.188;8.840;2023-10-08T21:20:31;19.70;53.16
69531;SHT31;56727;47.188;8.840;2023-10-08T21:22:58;19.66;53.31
69531;SHT31;56727;47.188;8.840;2023-10-08T21:25:30;19.63;53.32
69531;SHT31;56727;47.188;8.840;2023-10-08T21:27:57;19.58;53.47
69531;SHT31;56727;47.188;8.840;2023-10-08T21:30:26;19.55;53.58
69531;SHT31;56727;47.188;8.840;2023-10-08T21:32:53;19.52;53.65
69531;SHT31;56727;47.188;8.840;2023-10-08T21:35:21;19.51;53.78
69531;SHT31;56727;47.188;8.840;2023-10-08T21:37:50;19.50;53.81
69531;SHT31;56727;47.188;8.840;2023-10-08T21:40:19;19.50;53.85
69531;SHT31;56727;47.188;8.840;2023-10-08T21:42:50;19.49;53.87
69531;SHT31;56727;47.188;8.840;2023-10-08T21:45:18;19.48;53.89
69531;SHT31;56727;47.188;8.840;2023-10-08T21:47:46;19.47;53.91
69531;SHT31;56727;47.188;8.840;2023-10-08T21:50:15;19.47;53.97
69531;SHT31;56727;47.188;8.840;2023-10-08T21:52:47;19.44;53.94
69531;SHT31;56727;47.188;8.840;2023-10-08T21:55:16;19.43;54.13
69531;SHT31;56727;47.188;8.840;2023-10-08T21:57:45;19.44;54.38
69531;SHT31;56727;47.188;8.840;2023-10-08T22:00:18;19.47;54.42
69531;SHT31;56727;47.188;8.840;2023-10-08T22:02:48;19.46;54.45
69531;SHT31;56727;47.188;8.840;2023-10-08T22:05:26;19.45;54.57
69531;SHT31;56727;47.188;8.840;2023-10-08T22:07:56;19.46;54.60
69531;SHT31;56727;47.188;8.840;2023-10-08T22:10:24;19.49;54.60
69531;SHT31;56727;47.188;8.840;2023-10-08T22:12:53;19.53;54.81
69531;SHT31;56727;47.188;8.840;2023-10-08T22:15:20;19.58;54.85
69531;SHT31;56727;47.188;8.840;2023-10-08T22:17:54;19.58;54.97
69531;SHT31;56727;47.188;8.840;2023-10-08T22:20:27;19.56;54.83
69531;SHT31;56727;47.188;8.840;2023-10-08T22:23:10;19.55;55.00
69531;SHT31;56727;47.188;8.840;2023-10-08T22:25:45;19.51;55.06
69531;SHT31;56727;47.188;8.840;2023-10-08T22:28:14;19.47;55.01
69531;SHT31;56727;47.188;8.840;2023-10-08T22:30:52;19.45;55.00
69531;SHT31;56727;47.188;8.840;2023-10-08T22:33:25;19.41;54.96
69531;SHT31;56727;47.188;8.840;2023-10-08T22:36:06;19.35;55.12
69531;SHT31;56727;47.188;8.840;2023-10-08T22:38:59;19.32;55.24
69531;SHT31;56727;47.188;8.840;2023-10-08T22:41:26;19.31;55.27
69531;SHT31;56727;47.188;8.840;2023-10-08T22:44:03;19.31;55.30
69531;SHT31;56727;47.188;8.840;2023-10-08T22:46:31;19.31;55.36
69531;SHT31;56727;47.188;8.840;2023-10-08T22:49:00;19.31;55.33
69531;SHT31;56727;47.188;8.840;2023-10-08T22:51:30;19.28;55.35
69531;SHT31;56727;47.188;8.840;2023-10-08T22:54:01;19.27;55.42
69531;SHT31;56727;47.188;8.840;2023-10-08T22:56:29;19.25;55.46
69531;SHT31;56727;47.188;8.840;2023-10-08T22:58:57;19.23;55.49
69531;SHT31;56727;47.188;8.840;2023-10-08T23:01:26;19.21;55.53
69531;SHT31;56727;47.188;8.840;2023-10-08T23:03:53;19.20;55.53
69531;SHT31;56727;47.188;8.840;2023-10-08T23:06:20;19.19;55.44
69531;SHT31;56727;47.188;8.840;2023-10-08T23:08:49;19.16;55.44
69531;SHT31;56727;47.188;8.840;2023-10-08T23:11:16;19.12;55.49
69531;SHT31;56727;47.188;8.840;2023-10-08T23:13:43;19.08;55.62
69531;SHT31;56727;47.188;8.840;2023-10-08T23:16:10;19.07;55.66
69531;SHT31;56727;47.188;8.840;2023-10-08T23:18:41;19.05;55.70
69531;SHT31;56727;47.188;8.840;2023-10-08T23:21:09;19.03;55.63
69531;SHT31;56727;47.188;8.840;2023-10-08T23:23:37;19.01;55.69
69531;SHT31;56727;47.188;8.840;2023-10-08T23:26:08;18.99;55.68
69531;SHT31;56727;47.188;8.840;2023-10-08T23:28:42;18.95;55.74
69531;SHT31;56727;47.188;8.840;2023-10-08T23:31:09;18.92;55.66
69531;SHT31;56727;47.188;8.840;2023-10-08T23:33:37;18.90;55.77
69531;SHT31;56727;47.188;8.840;2023-10-08T23:36:05;18.87;55.92
69531;SHT31;56727;47.188;8.840;2023-10-08T23:38:35;18.83;55.87
69531;SHT31;56727;47.188;8.840;2023-10-08T23:41:05;18.81;55.98
69531;SHT31;56727;47.188;8.840;2023-10-08T23:43:44;18.82;56.04
69531;SHT31;56727;47.188;8.840;2023-10-08T23:46:25;18.83;55.95
69531;SHT31;56727;47.188;8.840;2023-10-08T23:48:57;18.82;55.91
69531;SHT31;56727;47.188;8.840;2023-10-08T23:51:42;18.80;55.94
69531;SHT31;56727;47.188;8.840;2023-10-08T23:54:12;18.80;55.94
69531;SHT31;56727;47.188;8.840;2023-10-08T23:56:59;18.77;55.99
69531;SHT31;56727;47.188;8.840;2023-10-08T23:59:27;18.75;55.97
